sensor_id;sensor_type;location;lat;lon;timestamp;P1;durP1;ratioP1;P2;durP2;ratioP2
10565;SDS011;5331;48.148;16.326;2023-08-06T00:00:24;0.57;;;0.57;;
10565;SDS011;5331;48.148;16.326;2023-08-06T00:02:52;0.63;;;0.63;;
10565;SDS011;5331;48.148;16.326;2023-08-06T00:05:19;0.60;;;0.60;;
10565;SDS011;5331;48.148;16.326;2023-08-06T00:07:46;0.60;;;0.60;;
10565;SDS011;5331;48.148;16.326;2023-08-06T00:10:13;0.50;;;0.50;;
10565;SDS011;5331;48.148;16.326;2023-08-06T00:12:41;0.55;;;0.50;;
10565;SDS011;5331;48.148;16.326;2023-08-06T00:15:08;0.52;;;0.52;;
10565;SDS011;5331;48.148;16.326;2023-08-06T00:17:35;0.47;;;0.47;;
10565;SDS011;5331;48.148;16.326;2023-08-06T00:20:04;0.50;;;0.50;;
10565;SDS011;5331;48.148;16.326;2023-08-06T00:22:32;0.50;;;0.50;;
10565;SDS011;5331;48.148;16.326;2023-08-06T00:24:59;0.50;;;0.50;;
10565;SDS011;5331;48.148;16.326;2023-08-06T00:27:26;0.50;;;0.50;;
10565;SDS011;5331;48.148;16.326;2023-08-06T00:29:53;0.52;;;0.52;;
10565;SDS011;5331;48.148;16.326;2023-08-06T00:32:21;0.50;;;0.50;;
10565;SDS011;5331;48.148;16.326;2023-08-06T00:34:48;0.70;;;0.70;;
10565;SDS011;5331;48.148;16.326;2023-08-06T00:37:16;0.55;;;0.55;;
10565;SDS011;5331;48.148;16.326;2023-08-06T00:39:43;0.60;;;0.60;;
10565;SDS011;5331;48.148;16.326;2023-08-06T00:42:11;1.10;;;0.60;;
10565;SDS011;5331;48.148;16.326;2023-08-06T00:44:38;0.70;;;0.70;;
10565;SDS011;5331;48.148;16.326;2023-08-06T00:47:06;0.50;;;0.50;;
10565;SDS011;5331;48.148;16.326;2023-08-06T00:49:34;0.40;;;0.40;;
10565;SDS011;5331;48.148;16.326;2023-08-06T00:52:02;0.60;;;0.60;;
10565;SDS011;5331;48.148;16.326;2023-08-06T00:54:32;0.57;;;0.57;;
10565;SDS011;5331;48.148;16.326;2023-08-06T00:57:01;0.55;;;0.55;;
10565;SDS011;5331;48.148;16.326;2023-08-06T00:59:28;0.75;;;0.75;;
10565;SDS011;5331;48.148;16.326;2023-08-06T01:01:56;0.73;;;0.73;;
10565;SDS011;5331;48.148;16.326;2023-08-06T01:04:23;0.65;;;0.65;;
10565;SDS011;5331;48.148;16.326;2023-08-06T01:06:52;0.60;;;0.60;;
10565;SDS011;5331;48.148;16.326;2023-08-06T01:09:30;0.60;;;0.60;;
10565;SDS011;5331;48.148;16.326;2023-08-06T01:12:08;0.63;;;0.63;;
10565;SDS011;5331;48.148;16.326;2023-08-06T01:14:45;0.50;;;0.50;;
10565;SDS011;5331;48.148;16.326;2023-08-06T01:17:27;0.40;;;0.40;;
10565;SDS011;5331;48.148;16.326;2023-08-06T01:19:57;0.60;;;0.60;;
10565;SDS011;5331;48.148;16.326;2023-08-06T01:22:25;0.98;;;0.45;;
10565;SDS011;5331;48.148;16.326;2023-08-06T01:24:52;0.47;;;0.47;;
10565;SDS011;5331;48.148;16.326;2023-08-06T01:27:21;0.60;;;0.60;;
10565;SDS011;5331;48.148;16.326;2023-08-06T01:29:56;0.50;;;0.50;;
10565;SDS011;5331;48.148;16.326;2023-08-06T01:32:30;0.50;;;0.50;;
10565;SDS011;5331;48.148;16.326;2023-08-06T01:35:01;0.60;;;0.60;;
10565;SDS011;5331;48.148;16.326;2023-08-06T01:37:31;0.70;;;0.70;;
10565;SDS011;5331;48.148;16.326;2023-08-06T01:39:58;0.50;;;0.50;;
10565;SDS011;5331;48.148;16.326;2023-08-06T01:42:25;0.70;;;0.70;;
10565;SDS011;5331;48.148;16.326;2023-08-06T01:44:52;0.70;;;0.70;;
10565;SDS011;5331;48.148;16.326;2023-08-06T01:47:19;0.70;;;0.70;;
10565;SDS011;5331;48.148;16.326;2023-08-06T01:49:46;0.80;;;0.80;;
10565;SDS011;5331;48.148;16.326;2023-08-06T01:52:13;0.80;;;0.80;;
10565;SDS011;5331;48.148;16.326;2023-08-06T01:54:41;0.70;;;0.70;;
10565;SDS011;5331;48.148;16.326;2023-08-06T01:57:08;0.73;;;0.73;;
10565;SDS011;5331;48.148;16.326;2023-08-06T01:59:35;0.88;;;0.88;;
10565;SDS011;5331;48.148;16.326;2023-08-06T02:02:01;1.00;;;1.00;;
10565;SDS011;5331;48.148;16.326;2023-08-06T02:04:28;0.90;;;0.90;;
10565;SDS011;5331;48.148;16.326;2023-08-06T02:06:55;0.88;;;0.88;;
10565;SDS011;5331;48.148;16.326;2023-08-06T02:09:22;1.00;;;1.00;;
10565;SDS011;5331;48.148;16.326;2023-08-06T02:11:51;0.90;;;0.90;;
10565;SDS011;5331;48.148;16.326;2023-08-06T02:14:17;0.98;;;0.98;;
10565;SDS011;5331;48.148;16.326;2023-08-06T02:16:44;1.10;;;1.10;;
10565;SDS011;5331;48.148;16.326;2023-08-06T02:19:11;1.10;;;1.10;;
10565;SDS011;5331;48.148;16.326;2023-08-06T02:21:38;1.58;;;1.17;;
10565;SDS011;5331;48.148;16.326;2023-08-06T02:24:05;1.10;;;1.10;;
10565;SDS011;5331;48.148;16.326;2023-08-06T02:26:32;1.67;;;1.23;;
10565;SDS011;5331;48.148;16.326;2023-08-06T02:29:00;1.20;;;1.20;;
10565;SDS011;5331;48.148;16.326;2023-08-06T02:31:27;1.20;;;1.20;;
10565;SDS011;5331;48.148;16.326;2023-08-06T02:33:54;1.40;;;1.33;;
10565;SDS011;5331;48.148;16.326;2023-08-06T02:36:20;1.20;;;1.20;;
10565;SDS011;5331;48.148;16.326;2023-08-06T02:38:48;1.30;;;1.17;;
10565;SDS011;5331;48.148;16.326;2023-08-06T02:41:15;1.40;;;1.30;;
10565;SDS011;5331;48.148;16.326;2023-08-06T02:43:41;1.23;;;1.13;;
10565;SDS011;5331;48.148;16.326;2023-08-06T02:46:10;1.40;;;1.23;;
10565;SDS011;5331;48.148;16.326;2023-08-06T02:48:37;1.15;;;1.15;;
10565;SDS011;5331;48.148;16.326;2023-08-06T02:51:03;1.40;;;1.30;;
10565;SDS011;5331;48.148;16.326;2023-08-06T02:53:30;1.40;;;1.40;;
10565;SDS011;5331;48.148;16.326;2023-08-06T02:55:57;1.38;;;1.38;;
10565;SDS011;5331;48.148;16.326;2023-08-06T02:58:24;1.30;;;1.30;;
10565;SDS011;5331;48.148;16.326;2023-08-06T03:01:01;1.20;;;1.20;;
10565;SDS011;5331;48.148;16.326;2023-08-06T03:03:30;1.27;;;1.27;;
10565;SDS011;5331;48.148;16.326;2023-08-06T03:05:57;1.17;;;1.17;;
10565;SDS011;5331;48.148;16.326;2023-08-06T03:08:24;1.20;;;1.20;;
10565;SDS011;5331;48.148;16.326;2023-08-06T03:10:51;1.60;;;1.50;;
10565;SDS011;5331;48.148;16.326;2023-08-06T03:13:19;1.30;;;1.30;;
10565;SDS011;5331;48.148;16.326;2023-08-06T03:15:51;1.42;;;1.42;;
10565;SDS011;5331;48.148;16.326;2023-08-06T03:18:19;1.88;;;1.70;;
10565;SDS011;5331;48.148;16.326;2023-08-06T03:20:47;1.52;;;1.50;;
10565;SDS011;5331;48.148;16.326;2023-08-06T03:23:14;1.77;;;1.67;;
10565;SDS011;5331;48.148;16.326;2023-08-06T03:25:41;1.80;;;1.70;;
10565;SDS011;5331;48.148;16.326;2023-08-06T03:28:08;1.85;;;1.75;;
10565;SDS011;5331;48.148;16.326;2023-08-06T03:30:35;1.80;;;1.80;;
10565;SDS011;5331;48.148;16.326;2023-08-06T03:33:03;1.60;;;1.60;;
10565;SDS011;5331;48.148;16.326;2023-08-06T03:35:29;1.83;;;1.73;;
10565;SDS011;5331;48.148;16.326;2023-08-06T03:37:58;1.95;;;1.85;;
10565;SDS011;5331;48.148;16.326;2023-08-06T03:40:25;2.00;;;1.90;;
10565;SDS011;5331;48.148;16.326;2023-08-06T03:42:51;2.00;;;1.90;;
10565;SDS011;5331;48.148;16.326;2023-08-06T03:45:18;2.22;;;2.13;;
10565;SDS011;5331;48.148;16.326;2023-08-06T03:47:45;2.05;;;1.88;;
10565;SDS011;5331;48.148;16.326;2023-08-06T03:50:12;2.15;;;2.05;;
10565;SDS011;5331;48.148;16.326;2023-08-06T03:52:39;2.33;;;2.22;;
10565;SDS011;5331;48.148;16.326;2023-08-06T03:55:07;2.15;;;2.05;;
10565;SDS011;5331;48.148;16.326;2023-08-06T03:57:34;2.05;;;1.95;;
10565;SDS011;5331;48.148;16.326;2023-08-06T04:00:01;2.42;;;2.22;;
10565;SDS011;5331;48.148;16.326;2023-08-06T04:02:29;2.42;;;2.25;;
10565;SDS011;5331;48.148;16.326;2023-08-06T04:04:55;2.10;;;2.00;;
10565;SDS011;5331;48.148;16.326;2023-08-06T04:07:24;2.10;;;2.00;;
10565;SDS011;5331;48.148;16.326;2023-08-06T04:09:52;2.30;;;2.20;;
10565;SDS011;5331;48.148;16.326;2023-08-06T04:12:21;2.22;;;2.13;;
10565;SDS011;5331;48.148;16.326;2023-08-06T04:14:48;2.10;;;2.00;;
10565;SDS011;5331;48.148;16.326;2023-08-06T04:17:15;2.28;;;2.17;;
10565;SDS011;5331;48.148;16.326;2023-08-06T04:19:45;2.22;;;2.13;;
10565;SDS011;5331;48.148;16.326;2023-08-06T04:22:12;2.20;;;2.10;;
10565;SDS011;5331;48.148;16.326;2023-08-06T04:24:39;2.67;;;2.45;;
10565;SDS011;5331;48.148;16.326;2023-08-06T04:27:06;2.47;;;2.38;;
10565;SDS011;5331;48.148;16.326;2023-08-06T04:29:35;2.50;;;2.30;;
10565;SDS011;5331;48.148;16.326;2023-08-06T04:32:03;2.88;;;2.40;;
10565;SDS011;5331;48.148;16.326;2023-08-06T04:34:31;2.45;;;2.25;;
10565;SDS011;5331;48.148;16.326;2023-08-06T04:36:58;2.30;;;2.20;;
10565;SDS011;5331;48.148;16.326;2023-08-06T04:39:25;2.70;;;2.50;;
10565;SDS011;5331;48.148;16.326;2023-08-06T04:41:52;2.75;;;2.63;;
10565;SDS011;5331;48.148;16.326;2023-08-06T04:44:20;3.10;;;2.90;;
10565;SDS011;5331;48.148;16.326;2023-08-06T04:46:48;2.38;;;2.28;;
10565;SDS011;5331;48.148;16.326;2023-08-06T04:49:15;2.20;;;2.10;;
10565;SDS011;5331;48.148;16.326;2023-08-06T04:51:43;2.58;;;2.45;;
10565;SDS011;5331;48.148;16.326;2023-08-06T04:54:09;2.78;;;2.60;;
10565;SDS011;5331;48.148;16.326;2023-08-06T04:56:36;2.50;;;2.30;;
10565;SDS011;5331;48.148;16.326;2023-08-06T04:59:03;2.58;;;2.40;;
10565;SDS011;5331;48.148;16.326;2023-08-06T05:01:31;2.45;;;2.35;;
10565;SDS011;5331;48.148;16.326;2023-08-06T05:03:59;3.15;;;2.95;;
10565;SDS011;5331;48.148;16.326;2023-08-06T05:06:26;2.60;;;2.40;;
10565;SDS011;5331;48.148;16.326;2023-08-06T05:08:53;2.40;;;2.20;;
10565;SDS011;5331;48.148;16.326;2023-08-06T05:11:20;2.10;;;2.00;;
10565;SDS011;5331;48.148;16.326;2023-08-06T05:13:46;2.50;;;2.30;;
10565;SDS011;5331;48.148;16.326;2023-08-06T05:16:13;2.25;;;2.15;;
10565;SDS011;5331;48.148;16.326;2023-08-06T05:18:40;2.22;;;2.13;;
10565;SDS011;5331;48.148;16.326;2023-08-06T05:21:09;2.30;;;2.20;;
10565;SDS011;5331;48.148;16.326;2023-08-06T05:23:36;2.45;;;2.35;;
10565;SDS011;5331;48.148;16.326;2023-08-06T05:26:02;2.75;;;2.47;;
10565;SDS011;5331;48.148;16.326;2023-08-06T05:28:29;2.35;;;2.25;;
10565;SDS011;5331;48.148;16.326;2023-08-06T05:30:56;2.75;;;2.55;;
10565;SDS011;5331;48.148;16.326;2023-08-06T05:33:23;2.10;;;2.00;;
10565;SDS011;5331;48.148;16.326;2023-08-06T05:35:50;2.75;;;2.50;;
10565;SDS011;5331;48.148;16.326;2023-08-06T05:38:18;2.30;;;2.20;;
10565;SDS011;5331;48.148;16.326;2023-08-06T05:40:45;2.55;;;2.35;;
10565;SDS011;5331;48.148;16.326;2023-08-06T05:43:12;2.40;;;2.30;;
10565;SDS011;5331;48.148;16.326;2023-08-06T05:45:39;2.40;;;2.30;;
10565;SDS011;5331;48.148;16.326;2023-08-06T05:48:10;2.47;;;2.28;;
10565;SDS011;5331;48.148;16.326;2023-08-06T05:50:37;2.28;;;2.17;;
10565;SDS011;5331;48.148;16.326;2023-08-06T05:53:05;2.63;;;2.30;;
10565;SDS011;5331;48.148;16.326;2023-08-06T05:55:34;2.40;;;2.30;;
10565;SDS011;5331;48.148;16.326;2023-08-06T05:58:01;2.60;;;2.40;;
10565;SDS011;5331;48.148;16.326;2023-08-06T06:00:28;2.67;;;2.47;;
10565;SDS011;5331;48.148;16.326;2023-08-06T06:02:55;2.45;;;2.35;;
10565;SDS011;5331;48.148;16.326;2023-08-06T06:05:22;2.40;;;2.30;;
10565;SDS011;5331;48.148;16.326;2023-08-06T06:07:49;2.70;;;2.50;;
10565;SDS011;5331;48.148;16.326;2023-08-06T06:10:16;2.30;;;2.20;;
10565;SDS011;5331;48.148;16.326;2023-08-06T06:12:44;2.15;;;2.05;;
10565;SDS011;5331;48.148;16.326;2023-08-06T06:15:11;2.13;;;2.00;;
10565;SDS011;5331;48.148;16.326;2023-08-06T06:17:39;2.45;;;2.35;;
10565;SDS011;5331;48.148;16.326;2023-08-06T06:20:06;4.03;;;3.70;;
10565;SDS011;5331;48.148;16.326;2023-08-06T06:22:34;2.33;;;2.10;;
10565;SDS011;5331;48.148;16.326;2023-08-06T06:25:01;2.33;;;2.22;;
10565;SDS011;5331;48.148;16.326;2023-08-06T06:27:28;2.35;;;2.25;;
10565;SDS011;5331;48.148;16.326;2023-08-06T06:29:56;2.42;;;2.22;;
10565;SDS011;5331;48.148;16.326;2023-08-06T06:32:23;2.50;;;2.22;;
10565;SDS011;5331;48.148;16.326;2023-08-06T06:34:50;3.05;;;2.85;;
10565;SDS011;5331;48.148;16.326;2023-08-06T06:37:16;3.13;;;2.83;;
10565;SDS011;5331;48.148;16.326;2023-08-06T06:39:43;2.58;;;2.47;;
10565;SDS011;5331;48.148;16.326;2023-08-06T06:42:11;2.53;;;2.40;;
10565;SDS011;5331;48.148;16.326;2023-08-06T06:44:40;2.10;;;2.00;;
10565;SDS011;5331;48.148;16.326;2023-08-06T06:47:09;2.38;;;2.28;;
10565;SDS011;5331;48.148;16.326;2023-08-06T06:49:36;2.00;;;1.90;;
10565;SDS011;5331;48.148;16.326;2023-08-06T06:52:04;2.17;;;2.08;;
10565;SDS011;5331;48.148;16.326;2023-08-06T06:54:31;2.13;;;2.03;;
10565;SDS011;5331;48.148;16.326;2023-08-06T06:56:58;1.90;;;1.80;;
10565;SDS011;5331;48.148;16.326;2023-08-06T06:59:25;1.92;;;1.83;;
10565;SDS011;5331;48.148;16.326;2023-08-06T07:01:52;2.00;;;1.90;;
10565;SDS011;5331;48.148;16.326;2023-08-06T07:04:20;1.75;;;1.70;;
10565;SDS011;5331;48.148;16.326;2023-08-06T07:06:47;1.60;;;1.60;;
10565;SDS011;5331;48.148;16.326;2023-08-06T07:09:14;1.80;;;1.70;;
10565;SDS011;5331;48.148;16.326;2023-08-06T07:11:41;1.80;;;1.70;;
10565;SDS011;5331;48.148;16.326;2023-08-06T07:14:09;1.75;;;1.65;;
10565;SDS011;5331;48.148;16.326;2023-08-06T07:16:36;2.00;;;1.90;;
10565;SDS011;5331;48.148;16.326;2023-08-06T07:19:03;1.85;;;1.75;;
10565;SDS011;5331;48.148;16.326;2023-08-06T07:21:32;1.90;;;1.80;;
10565;SDS011;5331;48.148;16.326;2023-08-06T07:23:59;2.00;;;1.90;;
10565;SDS011;5331;48.148;16.326;2023-08-06T07:26:26;2.10;;;2.00;;
10565;SDS011;5331;48.148;16.326;2023-08-06T07:28:52;1.95;;;1.85;;
10565;SDS011;5331;48.148;16.326;2023-08-06T07:31:19;2.08;;;1.98;;
10565;SDS011;5331;48.148;16.326;2023-08-06T07:33:46;2.08;;;1.98;;
10565;SDS011;5331;48.148;16.326;2023-08-06T07:36:14;2.10;;;2.00;;
10565;SDS011;5331;48.148;16.326;2023-08-06T07:38:42;2.30;;;2.20;;
10565;SDS011;5331;48.148;16.326;2023-08-06T07:41:09;3.50;;;3.30;;
10565;SDS011;5331;48.148;16.326;2023-08-06T07:43:36;2.63;;;2.53;;
10565;SDS011;5331;48.148;16.326;2023-08-06T07:46:03;1.95;;;1.83;;
10565;SDS011;5331;48.148;16.326;2023-08-06T07:48:30;2.33;;;2.22;;
10565;SDS011;5331;48.148;16.326;2023-08-06T07:50:57;2.10;;;2.00;;
10565;SDS011;5331;48.148;16.326;2023-08-06T07:53:25;2.20;;;2.10;;
10565;SDS011;5331;48.148;16.326;2023-08-06T07:55:58;1.90;;;1.80;;
10565;SDS011;5331;48.148;16.326;2023-08-06T07:58:27;2.08;;;1.98;;
10565;SDS011;5331;48.148;16.326;2023-08-06T08:00:54;2.40;;;2.00;;
10565;SDS011;5331;48.148;16.326;2023-08-06T08:03:21;2.28;;;2.17;;
10565;SDS011;5331;48.148;16.326;2023-08-06T08:05:48;2.47;;;2.28;;
10565;SDS011;5331;48.148;16.326;2023-08-06T08:08:17;2.13;;;2.03;;
10565;SDS011;5331;48.148;16.326;2023-08-06T08:10:44;2.40;;;2.30;;
10565;SDS011;5331;48.148;16.326;2023-08-06T08:13:12;2.15;;;2.05;;
10565;SDS011;5331;48.148;16.326;2023-08-06T08:15:39;2.30;;;2.20;;
10565;SDS011;5331;48.148;16.326;2023-08-06T08:18:06;2.20;;;2.10;;
10565;SDS011;5331;48.148;16.326;2023-08-06T08:20:34;2.00;;;1.90;;
10565;SDS011;5331;48.148;16.326;2023-08-06T08:23:01;2.30;;;2.20;;
10565;SDS011;5331;48.148;16.326;2023-08-06T08:25:28;2.42;;;2.20;;
10565;SDS011;5331;48.148;16.326;2023-08-06T08:27:56;2.17;;;2.08;;
10565;SDS011;5331;48.148;16.326;2023-08-06T08:30:25;2.30;;;2.20;;
10565;SDS011;5331;48.148;16.326;2023-08-06T08:32:52;2.22;;;2.13;;
10565;SDS011;5331;48.148;16.326;2023-08-06T08:35:19;1.98;;;1.88;;
10565;SDS011;5331;48.148;16.326;2023-08-06T08:37:46;3.17;;;2.20;;
10565;SDS011;5331;48.148;16.326;2023-08-06T08:40:13;2.30;;;2.20;;
10565;SDS011;5331;48.148;16.326;2023-08-06T08:42:41;2.47;;;2.38;;
10565;SDS011;5331;48.148;16.326;2023-08-06T08:45:11;2.55;;;2.45;;
10565;SDS011;5331;48.148;16.326;2023-08-06T08:47:43;2.45;;;2.25;;
10565;SDS011;5331;48.148;16.326;2023-08-06T08:50:12;3.15;;;2.85;;
10565;SDS011;5331;48.148;16.326;2023-08-06T08:52:40;2.63;;;2.45;;
10565;SDS011;5331;48.148;16.326;2023-08-06T08:55:10;2.67;;;2.47;;
10565;SDS011;5331;48.148;16.326;2023-08-06T08:57:40;2.40;;;2.30;;
10565;SDS011;5331;48.148;16.326;2023-08-06T09:00:07;2.85;;;2.60;;
10565;SDS011;5331;48.148;16.326;2023-08-06T09:02:35;2.60;;;2.50;;
10565;SDS011;5331;48.148;16.326;2023-08-06T09:05:05;4.28;;;2.80;;
10565;SDS011;5331;48.148;16.326;2023-08-06T09:07:34;3.10;;;2.90;;
10565;SDS011;5331;48.148;16.326;2023-08-06T09:10:05;3.20;;;3.00;;
10565;SDS011;5331;48.148;16.326;2023-08-06T09:12:36;3.40;;;3.20;;
10565;SDS011;5331;48.148;16.326;2023-08-06T09:15:03;3.10;;;2.90;;
10565;SDS011;5331;48.148;16.326;2023-08-06T09:17:31;3.22;;;3.00;;
10565;SDS011;5331;48.148;16.326;2023-08-06T09:19:58;3.08;;;2.78;;
10565;SDS011;5331;48.148;16.326;2023-08-06T09:22:26;3.28;;;3.08;;
10565;SDS011;5331;48.148;16.326;2023-08-06T09:25:00;3.38;;;3.17;;
10565;SDS011;5331;48.148;16.326;2023-08-06T09:27:28;3.28;;;3.08;;
10565;SDS011;5331;48.148;16.326;2023-08-06T09:29:55;4.07;;;3.80;;
10565;SDS011;5331;48.148;16.326;2023-08-06T09:32:22;3.83;;;3.50;;
10565;SDS011;5331;48.148;16.326;2023-08-06T09:34:54;3.53;;;3.33;;
10565;SDS011;5331;48.148;16.326;2023-08-06T09:37:22;4.07;;;3.78;;
10565;SDS011;5331;48.148;16.326;2023-08-06T09:39:50;4.00;;;3.70;;
10565;SDS011;5331;48.148;16.326;2023-08-06T09:42:19;3.83;;;3.55;;
10565;SDS011;5331;48.148;16.326;2023-08-06T09:44:46;4.00;;;3.70;;
10565;SDS011;5331;48.148;16.326;2023-08-06T09:47:13;5.28;;;4.88;;
10565;SDS011;5331;48.148;16.326;2023-08-06T09:49:44;3.70;;;3.50;;
10565;SDS011;5331;48.148;16.326;2023-08-06T09:52:12;4.30;;;4.00;;
10565;SDS011;5331;48.148;16.326;2023-08-06T09:54:41;4.22;;;3.90;;
10565;SDS011;5331;48.148;16.326;2023-08-06T09:57:11;4.20;;;3.90;;
10565;SDS011;5331;48.148;16.326;2023-08-06T09:59:38;4.50;;;4.10;;
10565;SDS011;5331;48.148;16.326;2023-08-06T10:02:07;4.47;;;4.18;;
10565;SDS011;5331;48.148;16.326;2023-08-06T10:04:38;4.10;;;3.80;;
10565;SDS011;5331;48.148;16.326;2023-08-06T10:07:06;4.00;;;3.80;;
10565;SDS011;5331;48.148;16.326;2023-08-06T10:09:33;4.22;;;3.92;;
10565;SDS011;5331;48.148;16.326;2023-08-06T10:12:00;3.88;;;3.67;;
10565;SDS011;5331;48.148;16.326;2023-08-06T10:14:29;4.20;;;3.80;;
10565;SDS011;5331;48.148;16.326;2023-08-06T10:16:59;3.60;;;3.40;;
10565;SDS011;5331;48.148;16.326;2023-08-06T10:19:26;3.60;;;3.30;;
10565;SDS011;5331;48.148;16.326;2023-08-06T10:22:13;3.88;;;3.58;;
10565;SDS011;5331;48.148;16.326;2023-08-06T10:24:48;3.65;;;3.45;;
10565;SDS011;5331;48.148;16.326;2023-08-06T10:27:19;3.78;;;3.58;;
10565;SDS011;5331;48.148;16.326;2023-08-06T10:29:48;3.40;;;3.20;;
10565;SDS011;5331;48.148;16.326;2023-08-06T10:32:15;3.58;;;3.28;;
10565;SDS011;5331;48.148;16.326;2023-08-06T10:34:56;3.30;;;3.10;;
10565;SDS011;5331;48.148;16.326;2023-08-06T10:37:24;3.22;;;3.03;;
10565;SDS011;5331;48.148;16.326;2023-08-06T10:40:00;3.53;;;3.22;;
10565;SDS011;5331;48.148;16.326;2023-08-06T10:42:27;3.50;;;3.30;;
10565;SDS011;5331;48.148;16.326;2023-08-06T10:45:12;3.10;;;2.90;;
10565;SDS011;5331;48.148;16.326;2023-08-06T10:47:42;4.55;;;2.92;;
10565;SDS011;5331;48.148;16.326;2023-08-06T10:50:11;3.33;;;3.03;;
10565;SDS011;5331;48.148;16.326;2023-08-06T10:52:41;3.40;;;3.20;;
10565;SDS011;5331;48.148;16.326;2023-08-06T10:55:08;3.33;;;3.08;;
10565;SDS011;5331;48.148;16.326;2023-08-06T10:57:35;3.38;;;3.08;;
10565;SDS011;5331;48.148;16.326;2023-08-06T11:00:04;3.10;;;2.90;;
10565;SDS011;5331;48.148;16.326;2023-08-06T11:02:34;3.22;;;3.03;;
10565;SDS011;5331;48.148;16.326;2023-08-06T11:05:08;3.20;;;3.00;;
10565;SDS011;5331;48.148;16.326;2023-08-06T11:07:36;2.95;;;2.75;;
10565;SDS011;5331;48.148;16.326;2023-08-06T11:10:04;3.83;;;2.92;;
10565;SDS011;5331;48.148;16.326;2023-08-06T11:12:33;3.42;;;3.13;;
10565;SDS011;5331;48.148;16.326;2023-08-06T11:15:00;3.08;;;2.88;;
10565;SDS011;5331;48.148;16.326;2023-08-06T11:17:28;2.97;;;2.78;;
10565;SDS011;5331;48.148;16.326;2023-08-06T11:19:58;3.22;;;2.38;;
10565;SDS011;5331;48.148;16.326;2023-08-06T11:22:26;2.72;;;2.53;;
10565;SDS011;5331;48.148;16.326;2023-08-06T11:24:53;3.25;;;2.95;;
10565;SDS011;5331;48.148;16.326;2023-08-06T11:27:20;2.80;;;2.60;;
10565;SDS011;5331;48.148;16.326;2023-08-06T11:29:47;2.85;;;2.70;;
10565;SDS011;5331;48.148;16.326;2023-08-06T11:32:14;3.00;;;2.80;;
10565;SDS011;5331;48.148;16.326;2023-08-06T11:34:40;2.80;;;2.70;;
10565;SDS011;5331;48.148;16.326;2023-08-06T11:37:10;3.05;;;2.85;;
10565;SDS011;5331;48.148;16.326;2023-08-06T11:39:38;3.05;;;2.85;;
10565;SDS011;5331;48.148;16.326;2023-08-06T11:42:05;2.97;;;2.78;;
10565;SDS011;5331;48.148;16.326;2023-08-06T11:44:33;2.80;;;2.70;;
10565;SDS011;5331;48.148;16.326;2023-08-06T11:47:02;2.95;;;2.78;;
10565;SDS011;5331;48.148;16.326;2023-08-06T11:49:37;3.20;;;3.00;;
10565;SDS011;5331;48.148;16.326;2023-08-06T11:52:08;4.70;;;2.97;;
10565;SDS011;5331;48.148;16.326;2023-08-06T11:54:39;3.10;;;2.90;;
10565;SDS011;5331;48.148;16.326;2023-08-06T11:57:07;3.20;;;2.70;;
10565;SDS011;5331;48.148;16.326;2023-08-06T11:59:33;3.22;;;3.03;;
10565;SDS011;5331;48.148;16.326;2023-08-06T12:02:01;3.15;;;2.83;;
10565;SDS011;5331;48.148;16.326;2023-08-06T12:04:30;3.40;;;3.20;;
10565;SDS011;5331;48.148;16.326;2023-08-06T12:07:04;2.90;;;2.70;;
10565;SDS011;5331;48.148;16.326;2023-08-06T12:09:34;2.90;;;2.80;;
10565;SDS011;5331;48.148;16.326;2023-08-06T12:12:01;3.35;;;3.15;;
10565;SDS011;5331;48.148;16.326;2023-08-06T12:14:29;3.10;;;2.90;;
10565;SDS011;5331;48.148;16.326;2023-08-06T12:16:56;2.97;;;2.75;;
10565;SDS011;5331;48.148;16.326;2023-08-06T12:19:23;2.78;;;2.58;;
10565;SDS011;5331;48.148;16.326;2023-08-06T12:21:50;3.20;;;3.00;;
10565;SDS011;5331;48.148;16.326;2023-08-06T12:24:16;3.38;;;3.15;;
10565;SDS011;5331;48.148;16.326;2023-08-06T12:26:44;3.10;;;2.90;;
10565;SDS011;5331;48.148;16.326;2023-08-06T12:29:11;3.22;;;3.03;;
10565;SDS011;5331;48.148;16.326;2023-08-06T12:31:38;3.55;;;2.90;;
10565;SDS011;5331;48.148;16.326;2023-08-06T12:34:05;3.15;;;2.95;;
10565;SDS011;5331;48.148;16.326;2023-08-06T12:36:32;3.20;;;2.90;;
10565;SDS011;5331;48.148;16.326;2023-08-06T12:38:59;2.97;;;2.78;;
10565;SDS011;5331;48.148;16.326;2023-08-06T12:41:25;3.20;;;3.00;;
10565;SDS011;5331;48.148;16.326;2023-08-06T12:43:54;3.10;;;2.90;;
10565;SDS011;5331;48.148;16.326;2023-08-06T12:46:20;3.17;;;2.90;;
10565;SDS011;5331;48.148;16.326;2023-08-06T12:48:47;3.65;;;3.15;;
10565;SDS011;5331;48.148;16.326;2023-08-06T12:51:14;3.25;;;2.83;;
10565;SDS011;5331;48.148;16.326;2023-08-06T12:53:41;3.55;;;3.35;;
10565;SDS011;5331;48.148;16.326;2023-08-06T12:56:08;3.47;;;2.92;;
10565;SDS011;5331;48.148;16.326;2023-08-06T12:58:35;3.08;;;2.88;;
10565;SDS011;5331;48.148;16.326;2023-08-06T13:01:03;3.10;;;2.90;;
10565;SDS011;5331;48.148;16.326;2023-08-06T13:03:32;3.22;;;2.92;;
10565;SDS011;5331;48.148;16.326;2023-08-06T13:06:00;3.28;;;3.08;;
10565;SDS011;5331;48.148;16.326;2023-08-06T13:08:29;3.03;;;2.83;;
10565;SDS011;5331;48.148;16.326;2023-08-06T13:10:57;3.08;;;2.83;;
10565;SDS011;5331;48.148;16.326;2023-08-06T13:13:26;3.10;;;2.80;;
10565;SDS011;5331;48.148;16.326;2023-08-06T13:15:55;3.17;;;2.83;;
10565;SDS011;5331;48.148;16.326;2023-08-06T13:18:25;3.47;;;3.17;;
10565;SDS011;5331;48.148;16.326;2023-08-06T13:20:54;3.20;;;3.00;;
10565;SDS011;5331;48.148;16.326;2023-08-06T13:23:23;3.17;;;2.90;;
10565;SDS011;5331;48.148;16.326;2023-08-06T13:25:51;3.05;;;2.80;;
10565;SDS011;5331;48.148;16.326;2023-08-06T13:28:20;3.20;;;3.00;;
10565;SDS011;5331;48.148;16.326;2023-08-06T13:30:49;3.53;;;2.80;;
10565;SDS011;5331;48.148;16.326;2023-08-06T13:33:18;3.20;;;2.90;;
10565;SDS011;5331;48.148;16.326;2023-08-06T13:35:48;3.00;;;2.80;;
10565;SDS011;5331;48.148;16.326;2023-08-06T13:38:16;2.90;;;2.70;;
10565;SDS011;5331;48.148;16.326;2023-08-06T13:40:45;2.72;;;2.53;;
10565;SDS011;5331;48.148;16.326;2023-08-06T13:43:13;2.83;;;2.63;;
10565;SDS011;5331;48.148;16.326;2023-08-06T13:45:44;2.70;;;2.50;;
10565;SDS011;5331;48.148;16.326;2023-08-06T13:48:13;2.85;;;2.50;;
10565;SDS011;5331;48.148;16.326;2023-08-06T13:50:41;2.60;;;2.40;;
10565;SDS011;5331;48.148;16.326;2023-08-06T13:53:12;3.25;;;2.10;;
10565;SDS011;5331;48.148;16.326;2023-08-06T13:55:40;3.00;;;2.30;;
10565;SDS011;5331;48.148;16.326;2023-08-06T13:58:09;2.00;;;1.90;;
10565;SDS011;5331;48.148;16.326;2023-08-06T14:00:37;2.10;;;2.00;;
10565;SDS011;5331;48.148;16.326;2023-08-06T14:03:05;1.80;;;1.70;;
10565;SDS011;5331;48.148;16.326;2023-08-06T14:05:34;1.85;;;1.75;;
10565;SDS011;5331;48.148;16.326;2023-08-06T14:08:02;1.63;;;1.52;;
10565;SDS011;5331;48.148;16.326;2023-08-06T14:10:33;1.70;;;1.60;;
10565;SDS011;5331;48.148;16.326;2023-08-06T14:13:01;1.40;;;1.30;;
10565;SDS011;5331;48.148;16.326;2023-08-06T14:15:30;1.40;;;1.30;;
10565;SDS011;5331;48.148;16.326;2023-08-06T14:17:59;1.20;;;1.20;;
10565;SDS011;5331;48.148;16.326;2023-08-06T14:20:28;1.50;;;1.40;;
10565;SDS011;5331;48.148;16.326;2023-08-06T14:22:57;1.10;;;1.10;;
10565;SDS011;5331;48.148;16.326;2023-08-06T14:25:27;1.30;;;1.30;;
10565;SDS011;5331;48.148;16.326;2023-08-06T14:27:57;1.20;;;1.20;;
10565;SDS011;5331;48.148;16.326;2023-08-06T14:30:26;1.55;;;1.00;;
10565;SDS011;5331;48.148;16.326;2023-08-06T14:32:54;1.10;;;1.10;;
10565;SDS011;5331;48.148;16.326;2023-08-06T14:35:24;1.10;;;1.10;;
10565;SDS011;5331;48.148;16.326;2023-08-06T14:37:52;1.15;;;1.15;;
10565;SDS011;5331;48.148;16.326;2023-08-06T14:40:21;1.00;;;1.00;;
10565;SDS011;5331;48.148;16.326;2023-08-06T14:42:53;1.00;;;1.00;;
10565;SDS011;5331;48.148;16.326;2023-08-06T14:45:24;1.23;;;1.15;;
10565;SDS011;5331;48.148;16.326;2023-08-06T14:47:53;1.00;;;1.00;;
10565;SDS011;5331;48.148;16.326;2023-08-06T14:50:22;1.02;;;1.02;;
10565;SDS011;5331;48.148;16.326;2023-08-06T14:52:50;1.00;;;1.00;;